sensor_id;sensor_type;location;lat;lon;timestamp;temperature;humidity
31725;DHT22;18306;40.960;14.836;2023-08-31T04:20:49;21.40;99.90
31725;DHT22;18306;40.960;14.836;2023-08-31T04:23:39;21.50;99.90
31725;DHT22;18306;40.960;14.836;2023-08-31T04:26:14;21.50;99.90
31725;DHT22;18306;40.960;14.836;2023-08-31T04:28:46;21.50;99.90
31725;DHT22;18306;40.960;14.836;2023-08-31T04:31:13;21.60;99.90
31725;DHT22;18306;40.960;14.836;2023-08-31T04:33:41;21.60;99.90
31725;DHT22;18306;40.960;14.836;2023-08-31T04:36:17;21.70;99.90
31725;DHT22;18306;40.960;14.836;2023-08-31T04:38:55;21.40;99.90
31725;DHT22;18306;40.960;14.836;2023-08-31T04:41:27;21.40;99.90
31725;DHT22;18306;40.960;14.836;2023-08-31T04:44:04;21.40;99.90
31725;DHT22;18306;40.960;14.836;2023-08-31T04:46:40;21.40;99.90
31725;DHT22;18306;40.960;14.836;2023-08-31T04:49:18;21.40;99.90
31725;DHT22;18306;40.960;14.836;2023-08-31T04:51:46;21.40;99.90
31725;DHT22;18306;40.960;14.836;2023-08-31T04:54:13;21.40;99.90
31725;DHT22;18306;40.960;14.836;2023-08-31T04:56:40;21.60;99.90
31725;DHT22;18306;40.960;14.836;2023-08-31T04:59:08;21.60;99.90
31725;DHT22;18306;40.960;14.836;2023-08-31T05:01:35;21.80;99.90
31725;DHT22;18306;40.960;14.836;2023-08-31T05:04:03;21.90;99.90
31725;DHT22;18306;40.960;14.836;2023-08-31T05:06:30;22.00;99.90
31725;DHT22;18306;40.960;14.836;2023-08-31T05:08:57;22.10;99.90
31725;DHT22;18306;40.960;14.836;2023-08-31T05:11:24;22.20;99.90
31725;DHT22;18306;40.960;14.836;2023-08-31T05:13:51;22.20;99.90
31725;DHT22;18306;40.960;14.836;2023-08-31T05:16:18;22.10;99.90
31725;DHT22;18306;40.960;14.836;2023-08-31T05:18:45;22.30;99.90
31725;DHT22;18306;40.960;14.836;2023-08-31T05:21:13;22.40;99.90
31725;DHT22;18306;40.960;14.836;2023-08-31T05:23:40;22.50;99.90
31725;DHT22;18306;40.960;14.836;2023-08-31T05:26:07;22.50;99.90
31725;DHT22;18306;40.960;14.836;2023-08-31T05:28:34;22.60;99.90
31725;DHT22;18306;40.960;14.836;2023-08-31T05:31:01;22.70;99.90
31725;DHT22;18306;40.960;14.836;2023-08-31T05:33:31;22.70;99.90
31725;DHT22;18306;40.960;14.836;2023-08-31T05:36:01;22.70;99.90
31725;DHT22;18306;40.960;14.836;2023-08-31T05:38:30;22.70;99.90
31725;DHT22;18306;40.960;14.836;2023-08-31T05:41:09;22.80;99.90
31725;DHT22;18306;40.960;14.836;2023-08-31T05:43:36;23.00;99.90
31725;DHT22;18306;40.960;14.836;2023-08-31T05:46:07;23.00;99.90
31725;DHT22;18306;40.960;14.836;2023-08-31T05:48:35;23.10;99.90
31725;DHT22;18306;40.960;14.836;2023-08-31T05:51:05;23.20;99.90
31725;DHT22;18306;40.960;14.836;2023-08-31T05:53:33;23.10;99.90
31725;DHT22;18306;40.960;14.836;2023-08-31T05:56:00;23.10;99.90
31725;DHT22;18306;40.960;14.836;2023-08-31T05:58:31;23.10;99.90
31725;DHT22;18306;40.960;14.836;2023-08-31T06:01:03;23.20;99.90
31725;DHT22;18306;40.960;14.836;2023-08-31T06:03:31;23.20;99.90
31725;DHT22;18306;40.960;14.836;2023-08-31T06:05:59;23.00;99.90
31725;DHT22;18306;40.960;14.836;2023-08-31T06:08:29;22.80;99.90
31725;DHT22;18306;40.960;14.836;2023-08-31T06:10:57;22.80;99.90
31725;DHT22;18306;40.960;14.836;2023-08-31T06:13:24;23.20;99.90
31725;DHT22;18306;40.960;14.836;2023-08-31T06:15:51;23.50;99.90
31725;DHT22;18306;40.960;14.836;2023-08-31T06:18:18;23.80;99.90
31725;DHT22;18306;40.960;14.836;2023-08-31T06:20:45;24.10;99.90
31725;DHT22;18306;40.960;14.836;2023-08-31T06:23:12;24.50;99.90
31725;DHT22;18306;40.960;14.836;2023-08-31T06:25:39;24.70;99.90
31725;DHT22;18306;40.960;14.836;2023-08-31T06:28:06;24.90;99.90
31725;DHT22;18306;40.960;14.836;2023-08-31T06:30:35;25.10;99.90
31725;DHT22;18306;40.960;14.836;2023-08-31T06:33:02;25.30;99.90
31725;DHT22;18306;40.960;14.836;2023-08-31T06:35:29;25.30;99.70
31725;DHT22;18306;40.960;14.836;2023-08-31T06:37:57;25.40;99.50
31725;DHT22;18306;40.960;14.836;2023-08-31T06:40:24;25.40;99.20
31725;DHT22;18306;40.960;14.836;2023-08-31T06:42:52;25.40;98.80
31725;DHT22;18306;40.960;14.836;2023-08-31T06:45:19;25.40;98.60
31725;DHT22;18306;40.960;14.836;2023-08-31T06:47:46;25.30;98.60
31725;DHT22;18306;40.960;14.836;2023-08-31T06:50:13;25.50;98.60
31725;DHT22;18306;40.960;14.836;2023-08-31T06:52:40;25.50;98.30
31725;DHT22;18306;40.960;14.836;2023-08-31T06:55:08;25.50;98.20
31725;DHT22;18306;40.960;14.836;2023-08-31T06:57:37;25.50;98.10
31725;DHT22;18306;40.960;14.836;2023-08-31T07:00:05;25.70;97.90
31725;DHT22;18306;40.960;14.836;2023-08-31T07:02:34;25.80;98.20
31725;DHT22;18306;40.960;14.836;2023-08-31T07:05:01;25.90;97.80
31725;DHT22;18306;40.960;14.836;2023-08-31T07:07:28;25.90;98.00
31725;DHT22;18306;40.960;14.836;2023-08-31T07:09:55;26.00;97.60
31725;DHT22;18306;40.960;14.836;2023-08-31T07:12:22;26.10;97.20
31725;DHT22;18306;40.960;14.836;2023-08-31T07:14:49;26.10;97.30
31725;DHT22;18306;40.960;14.836;2023-08-31T07:17:19;26.20;97.40
31725;DHT22;18306;40.960;14.836;2023-08-31T07:19:46;26.30;97.40
31725;DHT22;18306;40.960;14.836;2023-08-31T07:22:14;26.30;97.30
31725;DHT22;18306;40.960;14.836;2023-08-31T07:24:41;26.30;97.00
31725;DHT22;18306;40.960;14.836;2023-08-31T07:27:08;26.20;96.90
31725;DHT22;18306;40.960;14.836;2023-08-31T07:29:35;26.40;96.50
31725;DHT22;18306;40.960;14.836;2023-08-31T07:32:01;26.50;96.90
31725;DHT22;18306;40.960;14.836;2023-08-31T07:34:29;26.70;96.60
31725;DHT22;18306;40.960;14.836;2023-08-31T07:36:59;26.90;96.30
31725;DHT22;18306;40.960;14.836;2023-08-31T07:39:27;27.20;96.00
31725;DHT22;18306;40.960;14.836;2023-08-31T07:41:54;27.60;95.50
31725;DHT22;18306;40.960;14.836;2023-08-31T07:44:21;27.90;94.90
31725;DHT22;18306;40.960;14.836;2023-08-31T07:46:48;28.20;95.00
31725;DHT22;18306;40.960;14.836;2023-08-31T07:49:15;28.40;94.30
31725;DHT22;18306;40.960;14.836;2023-08-31T07:51:42;28.50;93.90
31725;DHT22;18306;40.960;14.836;2023-08-31T07:54:09;28.80;93.70
31725;DHT22;18306;40.960;14.836;2023-08-31T07:56:36;29.40;93.10
31725;DHT22;18306;40.960;14.836;2023-08-31T07:59:03;29.90;93.00
31725;DHT22;18306;40.960;14.836;2023-08-31T08:01:33;30.20;91.60
31725;DHT22;18306;40.960;14.836;2023-08-31T08:04:00;30.60;91.80
31725;DHT22;18306;40.960;14.836;2023-08-31T08:06:29;30.30;91.50
31725;DHT22;18306;40.960;14.836;2023-08-31T08:08:57;30.00;91.30
31725;DHT22;18306;40.960;14.836;2023-08-31T08:11:24;29.80;91.70
31725;DHT22;18306;40.960;14.836;2023-08-31T08:13:51;29.70;91.90
31725;DHT22;18306;40.960;14.836;2023-08-31T08:16:18;29.70;92.10
31725;DHT22;18306;40.960;14.836;2023-08-31T08:18:45;29.60;92.20
31725;DHT22;18306;40.960;14.836;2023-08-31T08:21:12;29.20;92.20
31725;DHT22;18306;40.960;14.836;2023-08-31T08:23:40;28.40;92.60
31725;DHT22;18306;40.960;14.836;2023-08-31T08:26:06;27.60;93.30
31725;DHT22;18306;40.960;14.836;2023-08-31T08:28:34;27.50;93.60
31725;DHT22;18306;40.960;14.836;2023-08-31T08:31:01;27.60;93.50
31725;DHT22;18306;40.960;14.836;2023-08-31T08:33:31;27.50;93.30
31725;DHT22;18306;40.960;14.836;2023-08-31T08:35:58;27.30;93.40
31725;DHT22;18306;40.960;14.836;2023-08-31T08:38:25;27.50;93.80
31725;DHT22;18306;40.960;14.836;2023-08-31T08:40:52;27.60;93.70
31725;DHT22;18306;40.960;14.836;2023-08-31T08:43:29;27.60;93.50
31725;DHT22;18306;40.960;14.836;2023-08-31T08:46:06;27.80;93.10
31725;DHT22;18306;40.960;14.836;2023-08-31T08:48:34;27.80;93.10
31725;DHT22;18306;40.960;14.836;2023-08-31T08:51:03;27.60;93.30
31725;DHT22;18306;40.960;14.836;2023-08-31T08:53:31;27.50;93.10
31725;DHT22;18306;40.960;14.836;2023-08-31T08:55:58;27.40;93.30
31725;DHT22;18306;40.960;14.836;2023-08-31T08:58:56;27.50;93.00
31725;DHT22;18306;40.960;14.836;2023-08-31T09:01:24;27.60;93.10
31725;DHT22;18306;40.960;14.836;2023-08-31T09:03:52;27.60;93.00
31725;DHT22;18306;40.960;14.836;2023-08-31T09:06:19;27.30;93.20
31725;DHT22;18306;40.960;14.836;2023-08-31T09:09:07;27.40;93.10
31725;DHT22;18306;40.960;14.836;2023-08-31T09:15:07;27.50;93.00
31725;DHT22;18306;40.960;14.836;2023-08-31T09:17:40;27.40;93.10
31725;DHT22;18306;40.960;14.836;2023-08-31T09:20:09;27.60;92.80
31725;DHT22;18306;40.960;14.836;2023-08-31T09:22:36;27.50;92.80
31725;DHT22;18306;40.960;14.836;2023-08-31T09:25:03;27.40;93.10
31725;DHT22;18306;40.960;14.836;2023-08-31T09:27:30;27.50;92.90
31725;DHT22;18306;40.960;14.836;2023-08-31T09:30:03;27.00;93.10
31725;DHT22;18306;40.960;14.836;2023-08-31T09:32:31;27.20;92.90
31725;DHT22;18306;40.960;14.836;2023-08-31T09:34:58;27.20;93.00
31725;DHT22;18306;40.960;14.836;2023-08-31T09:37:29;27.40;92.80
31725;DHT22;18306;40.960;14.836;2023-08-31T09:39:58;27.10;92.80
31725;DHT22;18306;40.960;14.836;2023-08-31T09:42:38;27.40;92.60
31725;DHT22;18306;40.960;14.836;2023-08-31T09:45:06;27.70;92.20
31725;DHT22;18306;40.960;14.836;2023-08-31T09:47:33;27.70;92.00
31725;DHT22;18306;40.960;14.836;2023-08-31T09:50:02;27.60;91.50
31725;DHT22;18306;40.960;14.836;2023-08-31T09:52:30;27.30;91.90
31725;DHT22;18306;40.960;14.836;2023-08-31T09:54:58;27.20;92.20
31725;DHT22;18306;40.960;14.836;2023-08-31T09:57:27;27.40;91.80
31725;DHT22;18306;40.960;14.836;2023-08-31T09:59:55;27.30;91.90
31725;DHT22;18306;40.960;14.836;2023-08-31T10:02:22;27.30;91.50
31725;DHT22;18306;40.960;14.836;2023-08-31T10:04:49;27.30;91.40
31725;DHT22;18306;40.960;14.836;2023-08-31T10:07:19;27.40;91.50
31725;DHT22;18306;40.960;14.836;2023-08-31T10:09:47;27.70;91.20
31725;DHT22;18306;40.960;14.836;2023-08-31T10:12:15;27.70;90.10
31725;DHT22;18306;40.960;14.836;2023-08-31T10:14:43;27.70;90.90
31725;DHT22;18306;40.960;14.836;2023-08-31T10:17:13;27.50;91.60
31725;DHT22;18306;40.960;14.836;2023-08-31T10:19:40;27.70;91.60
31725;DHT22;18306;40.960;14.836;2023-08-31T10:22:08;27.70;91.30
31725;DHT22;18306;40.960;14.836;2023-08-31T10:27:24;27.70;91.40
31725;DHT22;18306;40.960;14.836;2023-08-31T10:29:52;27.60;91.50
31725;DHT22;18306;40.960;14.836;2023-08-31T10:32:19;27.60;91.40
31725;DHT22;18306;40.960;14.836;2023-08-31T10:35:10;27.70;91.50
31725;DHT22;18306;40.960;14.836;2023-08-31T10:37:39;27.80;91.40
31725;DHT22;18306;40.960;14.836;2023-08-31T10:40:10;28.00;91.50
31725;DHT22;18306;40.960;14.836;2023-08-31T10:42:47;28.10;91.60
31725;DHT22;18306;40.960;14.836;2023-08-31T10:45:14;28.00;91.40
31725;DHT22;18306;40.960;14.836;2023-08-31T10:47:42;28.00;91.70
31725;DHT22;18306;40.960;14.836;2023-08-31T10:50:21;28.10;91.50
31725;DHT22;18306;40.960;14.836;2023-08-31T10:52:49;27.90;91.60
31725;DHT22;18306;40.960;14.836;2023-08-31T10:55:17;28.10;91.60
31725;DHT22;18306;40.960;14.836;2023-08-31T10:57:44;27.80;91.30
31725;DHT22;18306;40.960;14.836;2023-08-31T11:00:12;27.70;91.20
31725;DHT22;18306;40.960;14.836;2023-08-31T11:02:44;27.60;91.30
31725;DHT22;18306;40.960;14.836;2023-08-31T11:05:12;27.90;91.40
31725;DHT22;18306;40.960;14.836;2023-08-31T11:07:50;28.00;90.90
31725;DHT22;18306;40.960;14.836;2023-08-31T11:10:24;28.10;91.00
31725;DHT22;18306;40.960;14.836;2023-08-31T11:12:54;28.20;91.20
31725;DHT22;18306;40.960;14.836;2023-08-31T11:15:25;28.40;91.20
31725;DHT22;18306;40.960;14.836;2023-08-31T11:17:56;28.50;90.60
31725;DHT22;18306;40.960;14.836;2023-08-31T11:20:24;28.60;90.40
31725;DHT22;18306;40.960;14.836;2023-08-31T11:22:54;28.80;90.10
31725;DHT22;18306;40.960;14.836;2023-08-31T11:25:22;28.50;89.60
31725;DHT22;18306;40.960;14.836;2023-08-31T11:30:36;28.60;90.10
31725;DHT22;18306;40.960;14.836;2023-08-31T11:33:13;28.30;90.10
31725;DHT22;18306;40.960;14.836;2023-08-31T11:35:45;28.40;90.10
31725;DHT22;18306;40.960;14.836;2023-08-31T11:38:12;28.30;90.10
31725;DHT22;18306;40.960;14.836;2023-08-31T11:40:39;28.30;89.80
31725;DHT22;18306;40.960;14.836;2023-08-31T11:43:07;28.30;89.30
31725;DHT22;18306;40.960;14.836;2023-08-31T11:45:36;28.40;89.30
31725;DHT22;18306;40.960;14.836;2023-08-31T11:48:04;28.40;89.10
31725;DHT22;18306;40.960;14.836;2023-08-31T11:50:31;28.40;89.70
31725;DHT22;18306;40.960;14.836;2023-08-31T11:53:00;28.40;90.00
31725;DHT22;18306;40.960;14.836;2023-08-31T11:55:27;28.30;89.40
31725;DHT22;18306;40.960;14.836;2023-08-31T11:57:55;28.20;89.00
31725;DHT22;18306;40.960;14.836;2023-08-31T12:00:29;28.10;89.00
31725;DHT22;18306;40.960;14.836;2023-08-31T12:03:00;28.30;90.00
31725;DHT22;18306;40.960;14.836;2023-08-31T12:05:29;28.40;89.90
31725;DHT22;18306;40.960;14.836;2023-08-31T12:07:58;28.40;89.80
31725;DHT22;18306;40.960;14.836;2023-08-31T12:10:25;28.40;89.20
31725;DHT22;18306;40.960;14.836;2023-08-31T12:13:10;28.40;89.40
31725;DHT22;18306;40.960;14.836;2023-08-31T12:15:39;28.30;89.60
31725;DHT22;18306;40.960;14.836;2023-08-31T12:18:10;28.30;88.80
31725;DHT22;18306;40.960;14.836;2023-08-31T12:20:52;28.30;87.20
31725;DHT22;18306;40.960;14.836;2023-08-31T12:23:26;28.30;88.40
31725;DHT22;18306;40.960;14.836;2023-08-31T12:25:54;28.20;88.50
31725;DHT22;18306;40.960;14.836;2023-08-31T12:28:31;28.30;89.00
31725;DHT22;18306;40.960;14.836;2023-08-31T12:31:03;28.50;89.30
31725;DHT22;18306;40.960;14.836;2023-08-31T12:33:35;28.60;89.20
31725;DHT22;18306;40.960;14.836;2023-08-31T12:36:02;28.60;88.90
31725;DHT22;18306;40.960;14.836;2023-08-31T12:38:36;28.30;88.70
31725;DHT22;18306;40.960;14.836;2023-08-31T12:41:03;28.50;89.70
31725;DHT22;18306;40.960;14.836;2023-08-31T12:43:31;28.40;89.90
31725;DHT22;18306;40.960;14.836;2023-08-31T12:45:58;28.60;90.20
31725;DHT22;18306;40.960;14.836;2023-08-31T12:48:26;28.70;90.20
31725;DHT22;18306;40.960;14.836;2023-08-31T12:50:53;28.80;90.00
31725;DHT22;18306;40.960;14.836;2023-08-31T12:53:22;28.60;90.10
31725;DHT22;18306;40.960;14.836;2023-08-31T12:55:50;28.20;90.00
31725;DHT22;18306;40.960;14.836;2023-08-31T15:49:39;27.80;91.70
31725;DHT22;18306;40.960;14.836;2023-08-31T15:52:08;28.00;91.60
31725;DHT22;18306;40.960;14.836;2023-08-31T15:54:35;28.10;91.40
31725;DHT22;18306;40.960;14.836;2023-08-31T15:57:02;28.20;91.60
31725;DHT22;18306;40.960;14.836;2023-08-31T15:59:29;28.20;91.50
31725;DHT22;18306;40.960;14.836;2023-08-31T16:01:56;28.00;91.60
31725;DHT22;18306;40.960;14.836;2023-08-31T16:04:24;28.00;91.80
31725;DHT22;18306;40.960;14.836;2023-08-31T16:06:51;27.90;91.80
31725;DHT22;18306;40.960;14.836;2023-08-31T16:09:18;27.90;92.00
31725;DHT22;18306;40.960;14.836;2023-08-31T16:11:45;27.90;91.90
31725;DHT22;18306;40.960;14.836;2023-08-31T16:14:13;27.90;92.00
31725;DHT22;18306;40.960;14.836;2023-08-31T16:16:40;27.90;92.00
31725;DHT22;18306;40.960;14.836;2023-08-31T16:21:38;28.00;92.10
31725;DHT22;18306;40.960;14.836;2023-08-31T16:24:06;28.00;91.90
31725;DHT22;18306;40.960;14.836;2023-08-31T16:26:33;28.00;91.90
31725;DHT22;18306;40.960;14.836;2023-08-31T16:29:00;28.00;91.90
31725;DHT22;18306;40.960;14.836;2023-08-31T16:31:27;28.00;91.90
31725;DHT22;18306;40.960;14.836;2023-08-31T16:33:54;28.00;91.90
31725;DHT22;18306;40.960;14.836;2023-08-31T16:36:21;28.00;92.00
31725;DHT22;18306;40.960;14.836;2023-08-31T16:38:48;27.80;92.10
31725;DHT22;18306;40.960;14.836;2023-08-31T16:41:15;27.90;92.10
31725;DHT22;18306;40.960;14.836;2023-08-31T16:43:42;27.90;92.10
31725;DHT22;18306;40.960;14.836;2023-08-31T16:46:08;27.90;92.20
31725;DHT22;18306;40.960;14.836;2023-08-31T16:48:36;27.90;92.20
31725;DHT22;18306;40.960;14.836;2023-08-31T16:51:02;27.80;92.30
31725;DHT22;18306;40.960;14.836;2023-08-31T16:53:30;27.80;92.40
31725;DHT22;18306;40.960;14.836;2023-08-31T16:55:56;27.80;92.40
31725;DHT22;18306;40.960;14.836;2023-08-31T16:58:24;27.90;92.40
31725;DHT22;18306;40.960;14.836;2023-08-31T17:00:52;28.00;92.50
31725;DHT22;18306;40.960;14.836;2023-08-31T17:03:20;28.00;92.40
31725;DHT22;18306;40.960;14.836;2023-08-31T17:05:52;28.00;92.40
31725;DHT22;18306;40.960;14.836;2023-08-31T17:08:21;27.90;92.50
31725;DHT22;18306;40.960;14.836;2023-08-31T17:10:49;28.00;92.60
31725;DHT22;18306;40.960;14.836;2023-08-31T17:13:17;28.00;92.60
31725;DHT22;18306;40.960;14.836;2023-08-31T17:15:44;27.90;92.60
31725;DHT22;18306;40.960;14.836;2023-08-31T17:18:11;28.00;92.90
31725;DHT22;18306;40.960;14.836;2023-08-31T17:20:38;28.00;92.80
31725;DHT22;18306;40.960;14.836;2023-08-31T17:23:05;27.90;93.10
31725;DHT22;18306;40.960;14.836;2023-08-31T17:25:32;27.90;93.30
31725;DHT22;18306;40.960;14.836;2023-08-31T17:27:59;27.90;93.20
31725;DHT22;18306;40.960;14.836;2023-08-31T17:30:26;27.70;93.00
31725;DHT22;18306;40.960;14.836;2023-08-31T17:32:53;27.60;93.10
31725;DHT22;18306;40.960;14.836;2023-08-31T17:35:20;27.10;93.50
31725;DHT22;18306;40.960;14.836;2023-08-31T17:37:47;27.30;93.50
31725;DHT22;18306;40.960;14.836;2023-08-31T17:40:14;27.40;93.50
31725;DHT22;18306;40.960;14.836;2023-08-31T17:42:42;27.30;93.40
31725;DHT22;18306;40.960;14.836;2023-08-31T17:45:09;27.40;93.40
31725;DHT22;18306;40.960;14.836;2023-08-31T17:47:37;27.40;93.40
31725;DHT22;18306;40.960;14.836;2023-08-31T17:50:04;27.30;93.40
31725;DHT22;18306;40.960;14.836;2023-08-31T17:52:31;27.30;93.50
31725;DHT22;18306;40.960;14.836;2023-08-31T17:54:58;27.20;93.70
31725;DHT22;18306;40.960;14.836;2023-08-31T17:57:25;27.20;93.70
31725;DHT22;18306;40.960;14.836;2023-08-31T17:59:55;27.10;93.90
31725;DHT22;18306;40.960;14.836;2023-08-31T18:02:22;27.10;94.00
31725;DHT22;18306;40.960;14.836;2023-08-31T18:04:49;26.90;94.10
31725;DHT22;18306;40.960;14.836;2023-08-31T18:07:17;26.90;94.20
31725;DHT22;18306;40.960;14.836;2023-08-31T18:09:43;26.90;94.30
31725;DHT22;18306;40.960;14.836;2023-08-31T18:12:11;26.90;94.30
31725;DHT22;18306;40.960;14.836;2023-08-31T18:14:43;27.00;94.30
31725;DHT22;18306;40.960;14.836;2023-08-31T18:17:14;27.10;94.40
31725;DHT22;18306;40.960;14.836;2023-08-31T18:19:52;27.10;94.40
31725;DHT22;18306;40.960;14.836;2023-08-31T18:22:20;27.10;94.40
31725;DHT22;18306;40.960;14.836;2023-08-31T18:24:55;27.10;94.50
31725;DHT22;18306;40.960;14.836;2023-08-31T18:27:25;27.00;94.70
31725;DHT22;18306;40.960;14.836;2023-08-31T18:30:00;26.90;94.90
31725;DHT22;18306;40.960;14.836;2023-08-31T18:32:27;26.90;95.10
31725;DHT22;18306;40.960;14.836;2023-08-31T18:34:57;26.70;95.20
31725;DHT22;18306;40.960;14.836;2023-08-31T18:37:24;26.60;95.40
31725;DHT22;18306;40.960;14.836;2023-08-31T18:39:55;26.50;95.60
31725;DHT22;18306;40.960;14.836;2023-08-31T18:42:22;26.50;95.60
31725;DHT22;18306;40.960;14.836;2023-08-31T18:44:51;26.40;95.70
31725;DHT22;18306;40.960;14.836;2023-08-31T18:47:18;26.40;96.00
31725;DHT22;18306;40.960;14.836;2023-08-31T18:49:48;26.30;96.00
31725;DHT22;18306;40.960;14.836;2023-08-31T18:52:16;26.20;96.10
31725;DHT22;18306;40.960;14.836;2023-08-31T18:54:43;26.10;96.30
31725;DHT22;18306;40.960;14.836;2023-08-31T18:57:10;26.10;96.50
31725;DHT22;18306;40.960;14.836;2023-08-31T18:59:48;26.10;96.30
31725;DHT22;18306;40.960;14.836;2023-08-31T19:02:15;26.00;96.50
31725;DHT22;18306;40.960;14.836;2023-08-31T19:04:42;26.00;96.50
31725;DHT22;18306;40.960;14.836;2023-08-31T19:07:09;25.90;96.70
31725;DHT22;18306;40.960;14.836;2023-08-31T19:09:43;25.80;96.80
31725;DHT22;18306;40.960;14.836;2023-08-31T19:12:10;25.80;96.80
31725;DHT22;18306;40.960;14.836;2023-08-31T19:14:50;25.70;96.80
31725;DHT22;18306;40.960;14.836;2023-08-31T19:17:17;25.60;96.80
31725;DHT22;18306;40.960;14.836;2023-08-31T19:19:44;25.50;97.00
31725;DHT22;18306;40.960;14.836;2023-08-31T19:22:11;25.50;97.20
31725;DHT22;18306;40.960;14.836;2023-08-31T19:24:38;25.40;97.30
31725;DHT22;18306;40.960;14.836;2023-08-31T19:27:05;25.30;97.40
31725;DHT22;18306;40.960;14.836;2023-08-31T19:29:32;25.30;97.50
31725;DHT22;18306;40.960;14.836;2023-08-31T19:32:01;25.20;97.50
31725;DHT22;18306;40.960;14.836;2023-08-31T19:34:35;25.20;97.40
31725;DHT22;18306;40.960;14.836;2023-08-31T19:37:04;25.10;97.30
31725;DHT22;18306;40.960;14.836;2023-08-31T19:39:31;25.10;97.50
31725;DHT22;18306;40.960;14.836;2023-08-31T19:41:58;25.00;97.50
31725;DHT22;18306;40.960;14.836;2023-08-31T19:44:32;24.90;97.70
31725;DHT22;18306;40.960;14.836;2023-08-31T19:47:01;24.80;97.70
31725;DHT22;18306;40.960;14.836;2023-08-31T19:49:41;24.80;97.70
31725;DHT22;18306;40.960;14.836;2023-08-31T19:52:08;24.80;97.70
31725;DHT22;18306;40.960;14.836;2023-08-31T19:54:35;24.80;97.70
31725;DHT22;18306;40.960;14.836;2023-08-31T19:57:02;24.80;97.80
31725;DHT22;18306;40.960;14.836;2023-08-31T19:59:29;24.80;97.80
31725;DHT22;18306;40.960;14.836;2023-08-31T20:01:57;24.70;97.80
31725;DHT22;18306;40.960;14.836;2023-08-31T20:04:41;24.80;97.80
31725;DHT22;18306;40.960;14.836;2023-08-31T20:07:08;24.70;97.60
31725;DHT22;18306;40.960;14.836;2023-08-31T20:09:38;24.40;97.80
31725;DHT22;18306;40.960;14.836;2023-08-31T20:12:06;24.20;98.00
31725;DHT22;18306;40.960;14.836;2023-08-31T20:14:33;24.10;98.30
31725;DHT22;18306;40.960;14.836;2023-08-31T20:17:04;24.20;98.40
31725;DHT22;18306;40.960;14.836;2023-08-31T20:19:33;24.30;98.20
31725;DHT22;18306;40.960;14.836;2023-08-31T20:22:06;24.30;98.00
31725;DHT22;18306;40.960;14.836;2023-08-31T20:24:35;24.10;98.30
31725;DHT22;18306;40.960;14.836;2023-08-31T20:27:02;24.10;98.40
31725;DHT22;18306;40.960;14.836;2023-08-31T20:29:32;24.00;98.60
31725;DHT22;18306;40.960;14.836;2023-08-31T20:32:06;24.00;98.50
31725;DHT22;18306;40.960;14.836;2023-08-31T20:34:52;24.10;98.50
31725;DHT22;18306;40.960;14.836;2023-08-31T20:37:19;24.10;98.40
31725;DHT22;18306;40.960;14.836;2023-08-31T20:39:46;24.10;98.30
31725;DHT22;18306;40.960;14.836;2023-08-31T20:42:17;24.10;98.20
31725;DHT22;18306;40.960;14.836;2023-08-31T20:44:46;24.10;98.30
31725;DHT22;18306;40.960;14.836;2023-08-31T20:47:13;24.00;98.30
31725;DHT22;18306;40.960;14.836;2023-08-31T20:49:40;24.00;98.30
31725;DHT22;18306;40.960;14.836;2023-08-31T20:52:07;24.00;98.40
31725;DHT22;18306;40.960;14.836;2023-08-31T20:54:34;23.90;98.60
31725;DHT22;18306;40.960;14.836;2023-08-31T20:57:01;24.00;98.50
31725;DHT22;18306;40.960;14.836;2023-08-31T20:59:28;24.00;98.40
31725;DHT22;18306;40.960;14.836;2023-08-31T21:01:55;23.90;98.40
31725;DHT22;18306;40.960;14.836;2023-08-31T21:04:22;23.90;98.40
31725;DHT22;18306;40.960;14.836;2023-08-31T21:06:49;23.90;98.50
31725;DHT22;18306;40.960;14.836;2023-08-31T21:09:18;23.90;98.50
31725;DHT22;18306;40.960;14.836;2023-08-31T21:11:46;23.90;98.40
31725;DHT22;18306;40.960;14.836;2023-08-31T21:14:14;23.80;98.20
31725;DHT22;18306;40.960;14.836;2023-08-31T21:16:41;23.70;98.30
31725;DHT22;18306;40.960;14.836;2023-08-31T21:19:08;23.70;98.40
31725;DHT22;18306;40.960;14.836;2023-08-31T21:21:37;23.60;98.80
31725;DHT22;18306;40.960;14.836;2023-08-31T21:24:05;23.60;98.50
31725;DHT22;18306;40.960;14.836;2023-08-31T21:26:32;23.60;98.60
31725;DHT22;18306;40.960;14.836;2023-08-31T21:29:01;23.50;98.80
31725;DHT22;18306;40.960;14.836;2023-08-31T21:31:28;23.40;98.80
31725;DHT22;18306;40.960;14.836;2023-08-31T21:33:56;23.40;98.90
31725;DHT22;18306;40.960;14.836;2023-08-31T21:36:23;23.30;98.80
31725;DHT22;18306;40.960;14.836;2023-08-31T21:38:52;23.30;98.70
31725;DHT22;18306;40.960;14.836;2023-08-31T21:41:29;23.30;98.80
31725;DHT22;18306;40.960;14.836;2023-08-31T21:43:56;23.30;98.80
31725;DHT22;18306;40.960;14.836;2023-08-31T21:46:23;23.20;98.70
31725;DHT22;18306;40.960;14.836;2023-08-31T21:48:52;23.20;98.80
31725;DHT22;18306;40.960;14.836;2023-08-31T21:51:19;23.10;98.90
31725;DHT22;18306;40.960;14.836;2023-08-31T21:53:48;23.00;99.40
31725;DHT22;18306;40.960;14.836;2023-08-31T21:56:16;22.90;99.20
31725;DHT22;18306;40.960;14.836;2023-08-31T21:58:43;22.80;99.50
31725;DHT22;18306;40.960;14.836;2023-08-31T22:01:10;22.80;99.50
31725;DHT22;18306;40.960;14.836;2023-08-31T22:03:37;22.80;99.30
31725;DHT22;18306;40.960;14.836;2023-08-31T22:06:05;22.80;99.20
31725;DHT22;18306;40.960;14.836;2023-08-31T22:08:34;22.80;99.30
31725;DHT22;18306;40.960;14.836;2023-08-31T22:11:03;22.80;99.30
31725;DHT22;18306;40.960;14.836;2023-08-31T22:13:32;22.70;99.40
31725;DHT22;18306;40.960;14.836;2023-08-31T22:16:01;22.70;99.70
31725;DHT22;18306;40.960;14.836;2023-08-31T22:18:28;22.80;99.40
31725;DHT22;18306;40.960;14.836;2023-08-31T22:20:55;22.80;99.10
31725;DHT22;18306;40.960;14.836;2023-08-31T22:23:22;22.80;98.90
31725;DHT22;18306;40.960;14.836;2023-08-31T22:25:50;22.80;99.10
31725;DHT22;18306;40.960;14.836;2023-08-31T22:28:17;22.80;99.20
31725;DHT22;18306;40.960;14.836;2023-08-31T22:30:44;22.70;99.30
31725;DHT22;18306;40.960;14.836;2023-08-31T22:33:11;22.70;99.50
31725;DHT22;18306;40.960;14.836;2023-08-31T22:35:39;22.70;99.40
31725;DHT22;18306;40.960;14.836;2023-08-31T22:38:06;22.60;99.60
31725;DHT22;18306;40.960;14.836;2023-08-31T22:40:33;22.60;99.70
31725;DHT22;18306;40.960;14.836;2023-08-31T22:43:00;22.70;99.30
31725;DHT22;18306;40.960;14.836;2023-08-31T22:45:27;22.60;99.40
31725;DHT22;18306;40.960;14.836;2023-08-31T22:47:54;22.70;99.40